Time;durP1;ratioP1;P1;durP2;ratioP2;P2;SDS_P1;SDS_P2;PMS_P1;PMS_P2;Temp;Humidity;BMP_temperature;BMP_pressure;BME280_temperature;BME280_humidity;BME280_pressure;Samples;Min_cycle;Max_cycle;Signal;HPM_P1;HPM_P2
2023/08/16 00:02:19;;;;;;;;;;;18.40;99.90;;;;;;5112785;28;19923;-63
2023/08/16 00:04:46;;;;;;;;;;;18.40;99.90;;;;;;5111892;28;19923;-63
2023/08/16 00:07:12;;;;;;;;;;;18.40;99.90;;;;;;5112525;28;19931;-63
2023/08/16 00:09:39;;;;;;;;;;;18.30;99.90;;;;;;5111798;28;20538;-63
2023/08/16 00:12:06;;;;;;;;;;;18.30;99.90;;;;;;5112428;28;19946;-63
2023/08/16 00:14:33;;;;;;;;;;;18.10;99.90;;;;;;5111527;27;19923;-63
2023/08/16 00:17:00;;;;;;;;;;;18.10;99.90;;;;;;5112372;28;19973;-63
2023/08/16 00:19:26;;;;;;;;;;;18.10;99.90;;;;;;5111108;28;19980;-63
2023/08/16 00:21:53;;;;;;;;;;;18.10;99.90;;;;;;5112333;28;19959;-63
2023/08/16 00:24:20;;;;;;;;;;;18.10;99.90;;;;;;4759448;27;10000087;-63
2023/08/16 00:26:46;;;;;;;;;;;18.00;99.90;;;;;;5112066;28;19931;-63
2023/08/16 00:29:13;;;;;;;;;;;18.00;99.90;;;;;;5111781;28;19959;-63
2023/08/16 00:31:40;;;;;;;;;;;18.00;99.90;;;;;;5111925;28;19939;-62
2023/08/16 00:34:06;;;;;;;;;;;18.00;99.90;;;;;;5110296;28;19923;-62
2023/08/16 00:36:33;;;;;;;;;;;18.00;99.90;;;;;;5111881;28;20020;-62
2023/08/16 00:38:59;;;;;;;;;;;18.00;99.90;;;;;;5111447;28;19938;-62
2023/08/16 00:41:26;;;;;;;;;;;17.90;99.90;;;;;;5112139;28;19928;-62
2023/08/16 00:43:53;;;;;;;;;;;17.90;99.90;;;;;;5111919;28;19969;-63
2023/08/16 00:46:20;;;;;;;;;;;17.80;99.90;;;;;;5111365;28;19977;-62
2023/08/16 00:48:46;;;;;;;;;;;17.70;99.90;;;;;;5111890;27;19924;-62
2023/08/16 00:51:13;;;;;;;;;;;17.70;99.90;;;;;;5110098;28;19962;-62
2023/08/16 00:53:40;;;;;;;;;;;17.60;99.90;;;;;;5111465;28;19924;-62
2023/08/16 00:56:07;;;;;;;;;;;17.70;99.90;;;;;;5109526;28;19923;-62
2023/08/16 00:58:34;;;;;;;;;;;17.70;99.90;;;;;;5111594;28;19925;-62
2023/08/16 01:01:00;;;;;;;;;;;17.60;99.90;;;;;;5111318;28;19923;-63
2023/08/16 01:03:27;;;;;;;;;;;17.50;99.90;;;;;;5111874;28;19932;-62
2023/08/16 01:05:54;;;;;;;;;;;17.50;99.90;;;;;;5110736;28;19923;-63
2023/08/16 01:08:20;;;;;;;;;;;17.40;99.90;;;;;;5110947;28;19959;-62
2023/08/16 01:10:53;;;;;;;;;;;17.30;99.90;;;;;;5111012;28;19935;-63
2023/08/16 01:13:27;;;;;;;;;;;17.30;99.90;;;;;;5111245;28;20432;-62
2023/08/16 01:15:54;;;;;;;;;;;17.30;99.90;;;;;;5109271;28;20432;-62
2023/08/16 01:18:21;;;;;;;;;;;17.30;99.90;;;;;;5110973;28;19985;-62
2023/08/16 01:20:48;;;;;;;;;;;17.40;99.90;;;;;;5110726;28;19932;-62
2023/08/16 01:23:18;;;;;;;;;;;17.30;99.90;;;;;;5109578;28;20403;-62
2023/08/16 01:25:53;;;;;;;;;;;17.30;99.90;;;;;;5110517;28;19927;-62
2023/08/16 01:28:20;;;;;;;;;;;17.30;99.90;;;;;;5107824;28;20370;-61
2023/08/16 01:30:47;;;;;;;;;;;17.20;99.90;;;;;;5109283;28;19978;-61
2023/08/16 01:33:14;;;;;;;;;;;17.10;99.90;;;;;;5110281;28;19932;-61
2023/08/16 01:35:41;;;;;;;;;;;17.00;99.90;;;;;;5110498;28;19924;-62
2023/08/16 01:38:09;;;;;;;;;;;16.90;99.90;;;;;;5110349;28;20444;-61
2023/08/16 01:40:39;;;;;;;;;;;16.90;99.90;;;;;;5110758;28;19924;-62
2023/08/16 01:43:08;;;;;;;;;;;16.90;99.90;;;;;;5108811;28;20018;-61
2023/08/16 01:45:35;;;;;;;;;;;16.90;99.90;;;;;;5088802;28;19928;-61
2023/08/16 01:48:02;;;;;;;;;;;16.90;99.90;;;;;;5108611;28;20455;-62
2023/08/16 01:50:28;;;;;;;;;;;16.90;99.90;;;;;;5110720;28;20299;-62
2023/08/16 01:52:55;;;;;;;;;;;16.90;99.90;;;;;;5109943;28;19924;-62
2023/08/16 01:55:22;;;;;;;;;;;16.90;99.90;;;;;;5110528;28;19923;-62
2023/08/16 01:57:49;;;;;;;;;;;16.70;99.90;;;;;;5109533;28;19936;-62
2023/08/16 02:00:15;;;;;;;;;;;16.70;99.90;;;;;;5110203;28;19924;-62
2023/08/16 02:02:42;;;;;;;;;;;16.60;99.90;;;;;;5109851;28;19949;-62
2023/08/16 02:05:09;;;;;;;;;;;16.60;99.90;;;;;;5110307;28;19946;-62
2023/08/16 02:07:36;;;;;;;;;;;16.70;99.90;;;;;;5108454;28;20366;-62
2023/08/16 02:10:03;;;;;;;;;;;16.70;99.90;;;;;;5110192;28;19924;-61
2023/08/16 02:12:29;;;;;;;;;;;16.70;99.90;;;;;;5109729;28;19928;-62
2023/08/16 02:14:56;;;;;;;;;;;16.60;99.90;;;;;;5109941;28;19923;-62
2023/08/16 02:17:22;;;;;;;;;;;16.60;99.90;;;;;;5109755;28;19963;-62
2023/08/16 02:19:50;;;;;;;;;;;16.50;99.90;;;;;;5108498;28;20302;-62
2023/08/16 02:22:16;;;;;;;;;;;16.50;99.90;;;;;;5110031;28;19975;-62
2023/08/16 02:24:43;;;;;;;;;;;16.50;99.90;;;;;;5109033;28;19924;-62
2023/08/16 02:27:10;;;;;;;;;;;16.40;99.90;;;;;;5109478;28;19976;-62
2023/08/16 02:29:36;;;;;;;;;;;16.40;99.90;;;;;;5109258;28;19970;-61
2023/08/16 02:32:03;;;;;;;;;;;16.40;99.90;;;;;;5109634;28;19977;-62
2023/08/16 02:34:30;;;;;;;;;;;16.40;99.90;;;;;;5109124;28;20386;-62
2023/08/16 02:36:57;;;;;;;;;;;16.40;99.90;;;;;;5109433;28;19974;-62
2023/08/16 02:39:23;;;;;;;;;;;16.40;99.90;;;;;;5108920;28;19985;-62
2023/08/16 02:41:50;;;;;;;;;;;16.30;99.90;;;;;;5109394;28;19923;-62
2023/08/16 02:44:17;;;;;;;;;;;16.20;99.90;;;;;;5109407;28;19927;-62
2023/08/16 02:46:44;;;;;;;;;;;16.20;99.90;;;;;;5109221;28;19924;-63
2023/08/16 02:49:11;;;;;;;;;;;16.10;99.90;;;;;;5109022;28;19923;-63
2023/08/16 02:51:37;;;;;;;;;;;16.10;99.90;;;;;;5109887;27;19949;-63
2023/08/16 02:54:06;;;;;;;;;;;16.10;99.90;;;;;;5108757;28;19974;-63
2023/08/16 02:56:32;;;;;;;;;;;16.10;99.90;;;;;;5109431;28;20395;-62
2023/08/16 02:58:59;;;;;;;;;;;16.10;99.90;;;;;;5108508;28;20064;-63
2023/08/16 03:01:26;;;;;;;;;;;16.10;99.90;;;;;;5109127;28;20390;-63
2023/08/16 03:03:52;;;;;;;;;;;16.10;99.90;;;;;;5109377;28;19992;-63
2023/08/16 03:06:19;;;;;;;;;;;16.10;99.90;;;;;;5109009;28;20360;-63
2023/08/16 03:08:46;;;;;;;;;;;16.00;99.90;;;;;;5108571;28;19981;-63
2023/08/16 03:11:12;;;;;;;;;;;16.10;99.90;;;;;;5108956;28;19978;-63
2023/08/16 03:13:39;;;;;;;;;;;16.10;99.90;;;;;;5108125;28;19969;-63
2023/08/16 03:16:06;;;;;;;;;;;16.00;99.90;;;;;;5108585;28;20394;-63
2023/08/16 03:18:33;;;;;;;;;;;16.00;99.90;;;;;;5108640;27;20332;-63
2023/08/16 03:20:59;;;;;;;;;;;16.00;99.90;;;;;;5108644;28;20344;-63
2023/08/16 03:23:26;;;;;;;;;;;16.00;99.90;;;;;;5108893;28;20374;-62
2023/08/16 03:25:52;;;;;;;;;;;16.00;99.90;;;;;;5108824;28;20067;-63
2023/08/16 03:28:19;;;;;;;;;;;16.00;99.90;;;;;;5108815;28;19928;-63
2023/08/16 03:30:46;;;;;;;;;;;15.90;99.90;;;;;;5108659;28;19992;-64
2023/08/16 03:33:13;;;;;;;;;;;15.80;99.90;;;;;;5109018;28;19930;-63
2023/08/16 03:35:39;;;;;;;;;;;15.70;99.90;;;;;;5108627;28;19924;-62
2023/08/16 03:38:06;;;;;;;;;;;15.70;99.90;;;;;;5107865;28;19923;-62
2023/08/16 03:40:33;;;;;;;;;;;15.70;99.90;;;;;;5106411;28;19945;-63
2023/08/16 03:42:59;;;;;;;;;;;15.70;99.90;;;;;;5107140;28;19977;-63
2023/08/16 03:45:26;;;;;;;;;;;15.60;99.90;;;;;;5108091;28;20481;-63
2023/08/16 03:47:56;;;;;;;;;;;15.70;99.90;;;;;;5105344;28;20500;-63
2023/08/16 03:50:23;;;;;;;;;;;15.70;99.90;;;;;;5108754;28;20007;-62
2023/08/16 03:52:50;;;;;;;;;;;15.70;99.90;;;;;;5108123;28;19931;-63
2023/08/16 03:55:16;;;;;;;;;;;15.70;99.90;;;;;;5108506;28;19984;-63
2023/08/16 03:57:43;;;;;;;;;;;15.70;99.90;;;;;;5108150;28;19923;-63
2023/08/16 04:00:11;;;;;;;;;;;15.80;99.90;;;;;;5108739;28;19924;-62
2023/08/16 04:02:38;;;;;;;;;;;15.70;99.90;;;;;;5108123;28;19932;-62
2023/08/16 04:05:08;;;;;;;;;;;15.70;99.90;;;;;;5100697;28;19924;-62
2023/08/16 04:07:35;;;;;;;;;;;15.70;99.90;;;;;;5105215;28;19923;-62
2023/08/16 04:10:02;;;;;;;;;;;15.60;99.90;;;;;;5108346;28;20049;-62
2023/08/16 04:12:29;;;;;;;;;;;15.50;99.90;;;;;;5109136;28;19923;-62
2023/08/16 04:14:56;;;;;;;;;;;15.50;99.90;;;;;;5108631;28;19931;-62
2023/08/16 04:17:22;;;;;;;;;;;15.40;99.90;;;;;;5108090;28;20041;-61
2023/08/16 04:19:49;;;;;;;;;;;15.40;99.90;;;;;;5108231;28;20490;-63
2023/08/16 04:22:16;;;;;;;;;;;15.40;99.90;;;;;;5108131;28;19928;-61
2023/08/16 04:24:43;;;;;;;;;;;15.40;99.90;;;;;;5108422;28;19971;-61
2023/08/16 04:27:10;;;;;;;;;;;15.40;99.90;;;;;;5108280;28;19928;-62
2023/08/16 04:29:36;;;;;;;;;;;15.40;99.90;;;;;;5108324;28;19981;-62
2023/08/16 04:32:03;;;;;;;;;;;15.40;99.90;;;;;;5111204;28;19924;-62
2023/08/16 04:34:30;;;;;;;;;;;15.50;99.90;;;;;;5111906;28;19928;-62
2023/08/16 04:36:57;;;;;;;;;;;15.40;99.90;;;;;;5112087;28;19924;-62
2023/08/16 04:39:23;;;;;;;;;;;15.40;99.90;;;;;;5111337;28;20017;-61
2023/08/16 04:41:50;;;;;;;;;;;15.30;99.90;;;;;;5111040;28;19984;-62
2023/08/16 04:44:16;;;;;;;;;;;15.30;99.90;;;;;;5111130;27;19963;-61
2023/08/16 04:46:43;;;;;;;;;;;15.30;99.90;;;;;;5111439;28;19923;-61
2023/08/16 04:49:10;;;;;;;;;;;15.30;99.90;;;;;;5109593;28;19928;-61
2023/08/16 04:51:37;;;;;;;;;;;15.30;99.90;;;;;;5112031;28;19988;-62
2023/08/16 04:54:03;;;;;;;;;;;15.30;99.90;;;;;;5111290;28;19984;-62
2023/08/16 04:56:30;;;;;;;;;;;15.20;99.90;;;;;;5111728;28;19924;-62
2023/08/16 04:58:57;;;;;;;;;;;15.20;99.90;;;;;;5110731;28;19924;-62
2023/08/16 05:01:23;;;;;;;;;;;15.10;99.90;;;;;;5111332;28;20448;-62
2023/08/16 05:03:51;;;;;;;;;;;15.00;99.90;;;;;;5110922;28;19931;-63
2023/08/16 05:06:18;;;;;;;;;;;15.00;99.90;;;;;;5111163;28;19984;-62
2023/08/16 05:08:45;;;;;;;;;;;15.10;99.90;;;;;;5110682;27;19931;-63
2023/08/16 05:11:11;;;;;;;;;;;15.10;99.90;;;;;;5110968;27;19971;-62
2023/08/16 05:13:38;;;;;;;;;;;15.20;99.90;;;;;;5110904;28;19970;-62
2023/08/16 05:16:05;;;;;;;;;;;15.30;99.90;;;;;;5110687;28;19924;-63
2023/08/16 05:18:32;;;;;;;;;;;15.20;99.90;;;;;;5110549;28;19931;-62
2023/08/16 05:21:00;;;;;;;;;;;15.20;99.90;;;;;;5110919;28;19976;-60
2023/08/16 05:23:27;;;;;;;;;;;15.30;99.90;;;;;;5110645;28;19923;-62
2023/08/16 05:25:54;;;;;;;;;;;15.30;99.90;;;;;;5111072;28;19932;-62
2023/08/16 05:28:21;;;;;;;;;;;15.30;99.90;;;;;;5110835;28;20342;-61
2023/08/16 05:30:48;;;;;;;;;;;15.30;99.90;;;;;;5107421;28;19924;-62
2023/08/16 05:33:14;;;;;;;;;;;15.30;99.90;;;;;;5109819;28;19924;-63
2023/08/16 05:35:41;;;;;;;;;;;15.40;99.90;;;;;;5110417;27;19923;-63
2023/08/16 05:38:08;;;;;;;;;;;15.40;99.90;;;;;;5109590;28;19985;-63
2023/08/16 05:40:34;;;;;;;;;;;15.30;99.90;;;;;;5109961;28;20288;-62
2023/08/16 05:43:01;;;;;;;;;;;15.30;99.90;;;;;;5110504;28;19928;-62
2023/08/16 05:45:30;;;;;;;;;;;15.30;99.90;;;;;;5109909;28;19935;-62
2023/08/16 05:47:56;;;;;;;;;;;15.40;99.90;;;;;;5110578;28;20393;-63
2023/08/16 05:50:23;;;;;;;;;;;15.40;99.90;;;;;;5108528;28;19924;-63
2023/08/16 05:52:50;;;;;;;;;;;15.50;99.90;;;;;;5110706;28;19928;-63
2023/08/16 05:55:17;;;;;;;;;;;15.50;99.90;;;;;;5109804;28;20423;-63
2023/08/16 05:57:43;;;;;;;;;;;15.60;99.90;;;;;;5110101;28;19927;-62
2023/08/16 06:00:10;;;;;;;;;;;15.60;99.90;;;;;;5108385;28;19935;-63
2023/08/16 06:02:37;;;;;;;;;;;15.60;99.90;;;;;;5110275;28;19923;-62
2023/08/16 06:05:04;;;;;;;;;;;15.70;99.90;;;;;;5109515;28;19965;-63
2023/08/16 06:07:31;;;;;;;;;;;15.70;99.90;;;;;;5109824;28;19972;-62
2023/08/16 06:09:58;;;;;;;;;;;15.80;99.90;;;;;;5109751;28;19931;-63
2023/08/16 06:12:24;;;;;;;;;;;15.90;99.90;;;;;;5109285;28;19931;-62
2023/08/16 06:14:51;;;;;;;;;;;15.90;99.90;;;;;;5109579;28;20401;-62
2023/08/16 06:17:18;;;;;;;;;;;16.00;99.90;;;;;;5109484;28;20251;-64
2023/08/16 06:19:44;;;;;;;;;;;16.00;99.90;;;;;;5110174;28;19931;-60
2023/08/16 06:22:11;;;;;;;;;;;16.00;99.90;;;;;;5109367;28;19923;-60
2023/08/16 06:24:38;;;;;;;;;;;16.10;99.90;;;;;;5108384;28;19927;-61
2023/08/16 06:27:07;;;;;;;;;;;16.20;99.90;;;;;;5109593;27;19967;-61
2023/08/16 06:29:34;;;;;;;;;;;16.20;99.90;;;;;;5104616;28;19969;-62
2023/08/16 06:32:01;;;;;;;;;;;16.30;99.90;;;;;;5109082;28;19923;-61
2023/08/16 06:34:29;;;;;;;;;;;16.40;99.90;;;;;;5108653;28;19931;-61
2023/08/16 06:36:55;;;;;;;;;;;16.50;99.90;;;;;;5103655;28;19976;-62
2023/08/16 06:39:22;;;;;;;;;;;16.50;99.90;;;;;;5105968;28;19923;-62
2023/08/16 06:41:49;;;;;;;;;;;16.60;99.90;;;;;;4751702;27;10000494;-61
2023/08/16 06:44:16;;;;;;;;;;;16.70;99.90;;;;;;5106097;27;19967;-61
2023/08/16 06:46:43;;;;;;;;;;;16.70;99.90;;;;;;5105195;28;20382;-62
2023/08/16 06:49:09;;;;;;;;;;;16.80;99.90;;;;;;5102826;28;20397;-62
2023/08/16 06:51:36;;;;;;;;;;;16.90;99.90;;;;;;5101481;28;19932;-61
2023/08/16 06:54:03;;;;;;;;;;;16.90;99.90;;;;;;5105039;28;19928;-59
2023/08/16 06:56:29;;;;;;;;;;;17.00;99.90;;;;;;5103734;28;20393;-61
2023/08/16 06:58:56;;;;;;;;;;;17.10;99.90;;;;;;5105335;28;19967;-61
2023/08/16 07:01:23;;;;;;;;;;;17.10;99.90;;;;;;5105316;28;19928;-62
2023/08/16 07:03:50;;;;;;;;;;;17.20;99.90;;;;;;5105084;28;20031;-61
2023/08/16 07:06:18;;;;;;;;;;;17.20;99.90;;;;;;5106230;28;19928;-59
2023/08/16 07:08:44;;;;;;;;;;;17.30;99.90;;;;;;5103755;28;20295;-58
2023/08/16 07:11:11;;;;;;;;;;;17.40;99.90;;;;;;5105011;28;19973;-60
2023/08/16 07:13:38;;;;;;;;;;;17.50;99.90;;;;;;5105418;28;20745;-61
2023/08/16 07:16:04;;;;;;;;;;;17.50;99.90;;;;;;5105168;28;19977;-60
2023/08/16 07:18:31;;;;;;;;;;;17.60;99.90;;;;;;5104684;28;19927;-60
2023/08/16 07:20:58;;;;;;;;;;;17.60;99.90;;;;;;5105300;28;19927;-59
2023/08/16 07:23:25;;;;;;;;;;;17.50;99.90;;;;;;5104723;28;19963;-59
2023/08/16 07:25:55;;;;;;;;;;;17.50;99.90;;;;;;5105703;28;19974;-60
2023/08/16 07:28:23;;;;;;;;;;;17.60;99.90;;;;;;5104780;28;19924;-61
2023/08/16 07:30:53;;;;;;;;;;;17.60;99.90;;;;;;5103967;28;19931;-58
2023/08/16 07:33:21;;;;;;;;;;;17.60;99.90;;;;;;5105065;28;20464;-59
2023/08/16 07:35:48;;;;;;;;;;;17.70;99.90;;;;;;5105337;28;19924;-62
2023/08/16 07:38:22;;;;;;;;;;;17.70;99.90;;;;;;5104529;28;20014;-60
2023/08/16 07:40:49;;;;;;;;;;;17.80;99.90;;;;;;5108938;27;20388;-60
2023/08/16 07:43:15;;;;;;;;;;;17.90;99.90;;;;;;5102083;28;19946;-61
2023/08/16 07:45:42;;;;;;;;;;;17.90;99.90;;;;;;5104883;28;19977;-60
2023/08/16 07:48:09;;;;;;;;;;;18.00;99.90;;;;;;5104662;28;19931;-61
2023/08/16 07:50:36;;;;;;;;;;;18.10;99.90;;;;;;5111725;27;20046;-62
2023/08/16 07:53:03;;;;;;;;;;;18.10;99.90;;;;;;5104651;28;19924;-60
2023/08/16 07:55:30;;;;;;;;;;;18.10;99.90;;;;;;5104864;28;20282;-60
2023/08/16 07:57:57;;;;;;;;;;;18.10;99.90;;;;;;5105040;28;19936;-60
2023/08/16 08:00:24;;;;;;;;;;;18.20;99.90;;;;;;5102287;28;20336;-60
2023/08/16 08:02:51;;;;;;;;;;;18.20;99.90;;;;;;5104907;28;19928;-60
2023/08/16 08:05:25;;;;;;;;;;;18.30;99.90;;;;;;5104845;28;19935;-60
2023/08/16 08:07:52;;;;;;;;;;;18.30;99.90;;;;;;5108872;28;19923;-60
2023/08/16 08:10:19;;;;;;;;;;;18.40;99.90;;;;;;5108052;28;20415;-60
2023/08/16 08:12:46;;;;;;;;;;;18.40;99.90;;;;;;5108092;28;19924;-60
2023/08/16 08:15:13;;;;;;;;;;;18.40;99.90;;;;;;5107695;28;20366;-60
2023/08/16 08:17:40;;;;;;;;;;;18.50;99.90;;;;;;5108014;28;19971;-61
2023/08/16 08:20:07;;;;;;;;;;;18.60;99.90;;;;;;5108658;28;20346;-60
2023/08/16 08:22:34;;;;;;;;;;;18.70;99.90;;;;;;5108836;28;19928;-61
2023/08/16 08:25:01;;;;;;;;;;;18.70;99.90;;;;;;5108869;28;19927;-60
2023/08/16 08:27:28;;;;;;;;;;;18.80;99.90;;;;;;5108734;28;19942;-60
2023/08/16 08:29:55;;;;;;;;;;;18.80;99.90;;;;;;5108482;28;19927;-61
2023/08/16 08:32:22;;;;;;;;;;;18.90;99.90;;;;;;5108317;27;19934;-62
2023/08/16 08:34:49;;;;;;;;;;;19.00;99.90;;;;;;5107451;28;20409;-61
2023/08/16 08:37:16;;;;;;;;;;;19.20;99.90;;;;;;5107867;28;20012;-62
2023/08/16 08:39:42;;;;;;;;;;;19.20;99.90;;;;;;5109674;28;20454;-61
2023/08/16 08:42:09;;;;;;;;;;;19.30;99.90;;;;;;5110869;28;20565;-61
2023/08/16 08:44:36;;;;;;;;;;;19.40;99.90;;;;;;5109969;28;20454;-60
2023/08/16 08:47:05;;;;;;;;;;;19.40;99.90;;;;;;5108945;28;19946;-61
2023/08/16 08:49:41;;;;;;;;;;;19.40;99.90;;;;;;5110162;28;20023;-61
2023/08/16 08:52:08;;;;;;;;;;;19.50;99.90;;;;;;5109974;28;19930;-61
2023/08/16 08:54:35;;;;;;;;;;;19.60;99.90;;;;;;5109743;28;19932;-61
2023/08/16 08:57:04;;;;;;;;;;;19.60;99.90;;;;;;5110804;28;19924;-62
2023/08/16 08:59:33;;;;;;;;;;;19.60;99.90;;;;;;5111388;28;19928;-61
2023/08/16 09:02:00;;;;;;;;;;;19.70;99.90;;;;;;5110861;28;19934;-61
2023/08/16 09:04:28;;;;;;;;;;;19.80;99.90;;;;;;5111310;28;19992;-61
2023/08/16 09:06:55;;;;;;;;;;;19.90;99.90;;;;;;5110975;28;20279;-61
2023/08/16 09:09:24;;;;;;;;;;;19.90;99.90;;;;;;5111132;28;19977;-60
2023/08/16 09:11:51;;;;;;;;;;;19.90;99.90;;;;;;5110897;28;19927;-61
2023/08/16 09:14:18;;;;;;;;;;;20.00;99.90;;;;;;5110988;27;19970;-61
2023/08/16 09:16:44;;;;;;;;;;;20.10;99.90;;;;;;5110113;28;19973;-60
2023/08/16 09:19:12;;;;;;;;;;;20.20;99.90;;;;;;5110820;28;19932;-60
2023/08/16 09:21:40;;;;;;;;;;;20.30;99.90;;;;;;5110159;28;19966;-61
2023/08/16 09:24:07;;;;;;;;;;;20.50;99.90;;;;;;5109763;28;19938;-61
2023/08/16 09:26:35;;;;;;;;;;;20.60;99.90;;;;;;5110849;28;19946;-61
2023/08/16 09:29:04;;;;;;;;;;;20.80;99.90;;;;;;5110703;28;19976;-61
2023/08/16 09:31:37;;;;;;;;;;;20.90;99.90;;;;;;5110499;28;20321;-62
2023/08/16 09:34:05;;;;;;;;;;;21.00;99.90;;;;;;5110817;28;20337;-62
2023/08/16 09:36:33;;;;;;;;;;;21.00;99.90;;;;;;5109176;28;20000;-62
2023/08/16 09:39:08;;;;;;;;;;;21.20;99.90;;;;;;5110258;28;19928;-62
2023/08/16 09:41:38;;;;;;;;;;;21.20;99.90;;;;;;5106864;28;20022;-62
2023/08/16 09:44:06;;;;;;;;;;;21.10;99.90;;;;;;5109570;28;19932;-61
2023/08/16 09:46:33;;;;;;;;;;;21.20;99.90;;;;;;5108746;28;19924;-61
2023/08/16 09:49:03;;;;;;;;;;;21.50;99.90;;;;;;5109950;28;19928;-62
2023/08/16 09:51:36;;;;;;;;;;;21.80;99.90;;;;;;5111205;28;19979;-61
2023/08/16 09:54:12;;;;;;;;;;;22.30;99.90;;;;;;5109002;28;20365;-61
2023/08/16 09:57:24;;;;;;;9.90;2.70;;;22.60;99.90;;;;;;5084958;28;20394;-61
2023/08/16 09:59:55;;;;;;;9.35;2.90;;;23.00;99.90;;;;;;5067197;28;20050;-61
2023/08/16 10:02:21;;;;;;;6.50;3.38;;;23.30;99.90;;;;;;5085081;28;21093;-61
2023/08/16 10:05:08;;;;;;;102.57;13.02;;;23.70;99.90;;;;;;5068953;28;20040;-64
2023/08/16 10:07:36;;;;;;;9.82;2.70;;;24.00;99.90;;;;;;5077503;28;20071;-62
2023/08/16 10:10:09;;;;;;;10.40;2.88;;;24.10;99.90;;;;;;5066681;28;20052;-62
2023/08/16 10:12:37;;;;;;;6.78;2.38;;;24.20;99.90;;;;;;5085030;28;20051;-63
2023/08/16 10:15:04;;;;;;;411.02;34.13;;;24.20;99.90;;;;;;5084316;28;20629;-62
2023/08/16 10:17:32;;;;;;;256.38;26.52;;;24.40;99.90;;;;;;5084354;28;20048;-63
2023/08/16 10:20:00;;;;;;;9.75;3.03;;;24.50;99.90;;;;;;5066573;28;20048;-62
2023/08/16 10:22:30;;;;;;;10.90;2.92;;;24.70;99.90;;;;;;5084429;28;20083;-62
2023/08/16 10:25:11;;;;;;;6.57;2.33;;;24.80;99.90;;;;;;5066434;28;20040;-62
2023/08/16 10:27:39;;;;;;;10.18;2.42;;;24.90;99.90;;;;;;5065774;28;20311;-63
2023/08/16 10:30:07;;;;;;;6.20;2.22;;;24.90;99.90;;;;;;5062907;28;20056;-62
2023/08/16 10:32:36;;;;;;;7.45;2.33;;;24.90;99.90;;;;;;5064888;28;20148;-62
2023/08/16 10:35:03;;;;;;;6.00;1.90;;;24.80;99.90;;;;;;5048939;28;20054;-62
2023/08/16 10:37:30;;;;;;;3.97;1.92;;;24.90;99.90;;;;;;5066597;28;20127;-60
2023/08/16 10:39:56;;;;;;;5.27;2.33;;;24.80;99.90;;;;;;4712431;28;9999792;-63
2023/08/16 10:42:48;;;;;;;7.82;2.47;;;24.60;99.90;;;;;;5084015;28;20052;-60
2023/08/16 10:45:26;;;;;;;8.02;2.00;;;24.30;99.90;;;;;;5083573;28;20044;-62
2023/08/16 10:48:18;;;;;;;5.53;2.30;;;24.20;99.90;;;;;;5084408;28;20476;-61
2023/08/16 10:50:57;;;;;;;3.05;2.13;;;24.20;99.90;;;;;;5084104;28;20098;-62
2023/08/16 10:53:25;;;;;;;5.70;2.72;;;24.10;99.90;;;;;;5084757;28;20052;-61
2023/08/16 10:55:53;;;;;;;6.43;2.60;;;24.20;99.90;;;;;;5083299;28;20076;-61
2023/08/16 10:58:22;;;;;;;12.60;3.53;;;24.20;99.90;;;;;;5084313;28;20098;-61
2023/08/16 11:00:58;;;;;;;5.53;1.95;;;24.20;99.90;;;;;;5083282;28;20515;-61
2023/08/16 11:03:32;;;;;;;10.02;2.30;;;24.30;99.90;;;;;;5084729;28;20074;-61
2023/08/16 11:06:00;;;;;;;6.70;1.73;;;24.30;99.90;;;;;;5083832;28;20040;-61
2023/08/16 11:08:31;;;;;;;7.80;2.00;;;24.40;99.90;;;;;;5072506;28;20049;-61
2023/08/16 11:10:58;;;;;;;7.28;1.90;;;24.30;99.90;;;;;;5070370;28;20048;-61
2023/08/16 11:13:27;;;;;;;8.57;1.92;;;24.40;99.90;;;;;;5042708;28;20129;-61
2023/08/16 11:15:54;;;;;;;7.70;2.28;;;24.40;99.90;;;;;;5067941;28;20048;-61
2023/08/16 11:18:31;;;;;;;3.67;2.47;;;24.50;99.90;;;;;;5070114;28;20407;-61
2023/08/16 11:21:01;;;;;;;6.47;2.65;;;24.50;99.90;;;;;;5070011;28;20101;-61
2023/08/16 11:23:39;;;;;;;5.63;2.28;;;24.50;99.90;;;;;;5035822;28;20045;-61
2023/08/16 11:26:07;;;;;;;7.75;1.92;;;24.60;99.90;;;;;;5070247;28;20102;-60
2023/08/16 11:28:34;;;;;;;9.48;2.53;;;24.70;99.90;;;;;;5070570;28;20040;-60
2023/08/16 11:31:02;;;;;;;5.82;2.45;;;24.60;99.90;;;;;;5069807;28;20051;-61
2023/08/16 11:33:50;;;;;;;6.22;2.47;;;24.60;99.90;;;;;;5053595;28;20041;-61
2023/08/16 11:36:17;;;;;;;11.05;1.95;;;24.60;99.90;;;;;;5057570;28;20102;-61
2023/08/16 11:38:44;;;;;;;5.95;2.30;;;24.60;99.90;;;;;;5070444;28;20041;-60
2023/08/16 11:41:10;;;;;;;9.32;2.72;;;24.60;99.90;;;;;;5069624;28;20048;-62
2023/08/16 11:43:37;;;;;;;7.78;1.73;;;24.60;99.90;;;;;;5050776;28;20048;-62
2023/08/16 11:46:05;;;;;;;8.40;2.45;;;24.60;99.90;;;;;;5069507;28;20044;-61
2023/08/16 11:48:34;;;;;;;8.45;2.55;;;24.60;99.90;;;;;;5069655;28;20048;-61
2023/08/16 11:51:01;;;;;;;6.63;2.90;;;24.70;99.90;;;;;;5052280;28;20040;-62
2023/08/16 11:53:32;;;;;;;5.85;2.75;;;24.70;99.90;;;;;;5069918;28;20098;-62
2023/08/16 11:56:09;;;;;;;7.28;2.95;;;24.60;99.90;;;;;;5049303;28;20053;-62
2023/08/16 11:58:46;;;;;;;9.00;3.05;;;24.70;99.90;;;;;;5068680;28;20071;-61
2023/08/16 12:01:17;;;;;;;4.03;1.83;;;24.70;99.90;;;;;;5069471;28;20059;-61
2023/08/16 12:03:44;;;;;;;6.15;2.20;;;24.80;99.90;;;;;;5068587;28;20139;-62
2023/08/16 12:06:12;;;;;;;8.90;2.30;;;25.00;99.90;;;;;;5069439;28;20407;-61
2023/08/16 12:08:51;;;;;;;6.00;2.38;;;25.10;99.90;;;;;;5068483;28;20570;-61
2023/08/16 12:11:34;;;;;;;4.28;1.73;;;25.20;99.90;;;;;;4716493;28;10000117;-60
2023/08/16 12:14:05;;;;;;;5.97;2.38;;;25.30;99.90;;;;;;5065413;28;20044;-62
2023/08/16 12:16:33;;;;;;;4.78;2.65;;;25.30;99.90;;;;;;5062299;28;20058;-61
2023/08/16 12:19:00;;;;;;;6.05;2.42;;;25.30;99.90;;;;;;5064164;28;20045;-62
2023/08/16 12:21:27;;;;;;;4.90;2.10;;;25.40;99.90;;;;;;5067505;28;20052;-61
2023/08/16 12:23:55;;;;;;;8.30;2.60;;;25.50;99.90;;;;;;5068710;28;20040;-61
2023/08/16 12:26:21;;;;;;;7.13;2.08;;;25.60;99.90;;;;;;5066675;28;20056;-61
2023/08/16 12:28:48;;;;;;;7.63;2.42;;;25.60;99.90;;;;;;5050529;28;20541;-61
2023/08/16 12:31:15;;;;;;;12.27;2.55;;;25.50;99.90;;;;;;5068838;28;20058;-61
2023/08/16 12:33:43;;;;;;;10.10;2.30;;;25.40;99.90;;;;;;5068168;28;20064;-61
2023/08/16 12:36:12;;;;;;;9.95;3.25;;;25.40;99.90;;;;;;5068369;28;20706;-61
2023/08/16 12:38:40;;;;;;;10.25;2.30;;;25.40;99.90;;;;;;5049843;28;20048;-61
2023/08/16 12:41:07;;;;;;;6.53;1.98;;;25.30;99.90;;;;;;5057983;28;20055;-61
2023/08/16 12:43:34;;;;;;;9.85;2.40;;;25.30;99.90;;;;;;5068410;28;20052;-61
2023/08/16 12:46:07;;;;;;;7.95;2.08;;;25.20;99.50;;;;;;5068607;28;20071;-61
2023/08/16 12:48:35;;;;;;;9.35;2.53;;;25.00;99.90;;;;;;5068050;28;20051;-61
2023/08/16 12:51:02;;;;;;;5.45;2.03;;;24.90;99.90;;;;;;5064874;28;20049;-61
2023/08/16 12:53:30;;;;;;;19.48;2.42;;;24.90;99.70;;;;;;5068742;28;20086;-61
2023/08/16 12:56:03;;;;;;;12.85;2.25;;;24.80;99.90;;;;;;5067333;28;20048;-62
2023/08/16 12:58:30;;;;;;;5.57;2.00;;;24.80;99.70;;;;;;5067440;28;20114;-62
2023/08/16 13:01:00;;;;;;;12.55;2.65;;;24.80;99.60;;;;;;5067385;28;20052;-62
2023/08/16 13:03:30;;;;;;;9.25;1.95;;;24.80;99.60;;;;;;5068452;28;20060;-62
2023/08/16 13:06:01;;;;;;;7.15;2.30;;;24.80;99.50;;;;;;5068366;28;20047;-61
2023/08/16 13:08:31;;;;;;;3.67;2.05;;;24.90;99.30;;;;;;5067890;28;20126;-62
2023/08/16 13:10:58;;;;;;;4.97;1.95;;;25.20;99.40;;;;;;5068034;28;20094;-62
2023/08/16 13:13:36;;;;;;;5.78;1.98;;;25.30;98.70;;;;;;5068621;28;20392;-62
2023/08/16 13:16:04;;;;;;;5.13;1.67;;;25.30;98.90;;;;;;5067264;28;20043;-62
2023/08/16 13:18:36;;;;;;;13.82;1.63;;;25.50;99.30;;;;;;5067568;28;20059;-62
2023/08/16 13:21:08;;;;;;;8.65;1.73;;;25.60;99.00;;;;;;5068191;28;20076;-61
2023/08/16 13:23:49;;;;;;;6.15;1.80;;;25.80;98.40;;;;;;5068118;28;20055;-62
2023/08/16 13:26:39;;;;;;;4.20;1.92;;;25.90;98.50;;;;;;5050706;28;20044;-62
2023/08/16 13:29:26;;;;;;;6.45;1.77;;;26.00;98.30;;;;;;5067546;28;20048;-62
2023/08/16 13:31:57;;;;;;;9.63;2.53;;;26.00;97.80;;;;;;5067492;28;20083;-62
2023/08/16 13:34:30;;;;;;;11.48;2.38;;;25.90;97.50;;;;;;5068194;28;20055;-61
2023/08/16 13:37:03;;;;;;;7.78;1.77;;;25.80;97.70;;;;;;5065194;28;20083;-61
2023/08/16 13:39:51;;;;;;;14.65;2.55;;;25.80;96.40;;;;;;5064437;28;20044;-62
2023/08/16 13:42:21;;;;;;;7.88;1.85;;;25.70;96.40;;;;;;5068150;28;20483;-63
2023/08/16 13:45:04;;;;;;;8.20;1.67;;;25.70;96.20;;;;;;5067741;28;20053;-62
2023/08/16 13:47:34;;;;;;;8.75;1.73;;;25.60;96.40;;;;;;5067661;28;20072;-62
2023/08/16 13:50:01;;;;;;;11.15;2.75;;;25.70;96.70;;;;;;5067734;28;20052;-62
2023/08/16 13:52:28;;;;;;;7.85;1.83;;;25.70;96.20;;;;;;5067826;28;20052;-62
2023/08/16 13:54:55;;;;;;;7.85;2.88;;;25.60;96.10;;;;;;5067677;28;20048;-62
2023/08/16 13:57:22;;;;;;;5.15;2.00;;;25.60;96.20;;;;;;5067271;28;20060;-62